Terminal Aerodrome Forecast
Issued by NWS Jackson, MS

Home | Current Version | Previous Version | Text Only | Print | Product List | Glossary On
Versions: 1 2 3 4 5 6 7 8 9 10 11 12 13 14 15
000
FTUS44 KJAN 250541
TAFHBG
TAF
KHBG 250541Z 2506/2606 19009KT P6SM BKN025 BKN250
     FM251000 21007KT P6SM VCSH BKN015 BKN130
     FM251200 29008KT 5SM -SHRA BR BKN015 BKN090
     FM251300 34008KT 3SM -SHRA BR BKN025 BKN090
     FM251500 01007KT 5SM -RA BR BKN025 BKN050
     FM251700 02006KT 6SM -RA BR BKN015 BKN090
     FM252200 03003KT 5SM SHRA BKN015 OVC090=

USA.gov is the U.S. government's official web portal to all federal, state and local government web resources and services.